Time;durP1;ratioP1;P1;durP2;ratioP2;P2;SDS_P1;SDS_P2;PMS_P1;PMS_P2;Temp;Humidity;BMP_temperature;BMP_pressure;BME280_temperature;BME280_humidity;BME280_pressure;Samples;Min_cycle;Max_cycle;Signal;HPM_P1;HPM_P2
2023/12/06 00:05:17;;;;;;;17.42;6.32;;;;;;;17.54;100.00;100863.47;10580915;27;20431;-77
2023/12/06 00:10:39;;;;;;;8.98;4.07;;;;;;;17.58;100.00;100877.69;10591738;27;20047;-77
2023/12/06 00:16:03;;;;;;;16.17;8.65;;;;;;;17.47;100.00;100880.44;10579955;27;20131;-76
2023/12/06 00:21:25;;;;;;;8.02;3.35;;;;;;;17.49;100.00;100856.41;10603100;27;20361;-77
2023/12/06 00:26:48;;;;;;;9.95;3.90;;;;;;;17.04;100.00;100841.78;10607977;27;20104;-77
2023/12/06 00:32:12;;;;;;;12.40;4.35;;;;;;;16.79;100.00;100834.91;10564731;28;20043;-76
2023/12/06 00:37:34;;;;;;;7.93;3.88;;;;;;;16.77;100.00;100845.56;10570856;27;20055;-77
2023/12/06 00:42:56;;;;;;;12.68;3.72;;;;;;;16.71;100.00;100837.63;10605308;27;20071;-77
2023/12/06 00:48:20;;;;;;;12.70;3.55;;;;;;;16.71;100.00;100829.63;10602387;27;20078;-77
2023/12/06 00:53:43;;;;;;;9.82;3.28;;;;;;;16.68;100.00;100827.84;10582669;27;20055;-78
2023/12/06 00:59:05;;;;;;;9.23;3.70;;;;;;;16.71;100.00;100821.63;10598686;27;20540;-77
2023/12/06 01:04:29;;;;;;;10.38;3.67;;;;;;;16.71;100.00;100802.97;10603063;27;20051;-77
2023/12/06 01:09:51;;;;;;;6.22;2.90;;;;;;;16.88;100.00;100793.03;10604458;27;20050;-77
2023/12/06 01:15:14;;;;;;;9.68;3.00;;;;;;;17.07;100.00;100773.25;10594319;27;20261;-77
2023/12/06 01:20:38;;;;;;;10.60;3.35;;;;;;;17.27;100.00;100775.72;10576771;27;20150;-77
2023/12/06 01:26:01;;;;;;;5.55;2.88;;;;;;;17.37;100.00;100761.38;10578726;27;20049;-77
2023/12/06 01:31:23;;;;;;;9.68;3.25;;;;;;;17.51;100.00;100759.41;10574657;27;20100;-77
2023/12/06 01:36:47;;;;;;;9.43;2.55;;;;;;;17.52;100.00;100769.16;10583644;27;20050;-76
2023/12/06 01:42:10;;;;;;;4.68;2.80;;;;;;;17.75;100.00;100776.03;10552024;27;20126;-77
2023/12/06 01:47:33;;;;;;;10.20;3.35;;;;;;;18.04;100.00;100770.28;10575385;27;20111;-77
2023/12/06 01:53:00;;;;;;;7.30;2.70;;;;;;;18.24;100.00;100792.25;10576827;27;20511;-77
2023/12/06 01:58:24;;;;;;;7.35;2.53;;;;;;;18.25;100.00;100778.84;10560812;27;20110;-77
2023/12/06 02:03:46;;;;;;;6.88;3.10;;;;;;;18.30;100.00;100776.13;10598226;27;20104;-77
2023/12/06 02:09:12;;;;;;;10.07;2.75;;;;;;;18.22;100.00;100741.50;10565206;27;20055;-77
2023/12/06 02:14:35;;;;;;;8.27;3.72;;;;;;;18.38;100.00;100758.16;10554337;27;20059;-77
2023/12/06 02:19:58;;;;;;;6.55;2.50;;;;;;;18.37;100.00;100750.19;10573761;27;20050;-76
2023/12/06 02:25:22;;;;;;;8.38;3.17;;;;;;;18.16;100.00;100754.06;10600487;27;20088;-77
2023/12/06 02:30:45;;;;;;;8.50;2.70;;;;;;;17.90;100.00;100760.69;10555355;27;20054;-77
2023/12/06 02:36:11;;;;;;;8.88;2.13;;;;;;;17.78;100.00;100760.88;10583212;27;20104;-77
2023/12/06 02:41:36;;;;;;;7.65;2.42;;;;;;;17.59;100.00;100750.44;10597588;27;20074;-77
2023/12/06 02:46:59;;;;;;;9.77;2.95;;;;;;;17.54;100.00;100745.13;10588969;27;20130;-77
2023/12/06 02:52:22;;;;;;;7.32;2.47;;;;;;;17.45;100.00;100719.47;10571702;27;20122;-77
2023/12/06 02:57:46;;;;;;;9.57;2.35;;;;;;;17.62;100.00;100713.03;10549090;27;20610;-77
2023/12/06 03:03:08;;;;;;;9.50;2.65;;;;;;;17.96;100.00;100727.66;10581487;27;20039;-77
2023/12/06 03:08:30;;;;;;;10.50;2.75;;;;;;;18.23;100.00;100704.97;10581937;27;20540;-76
2023/12/06 03:13:54;;;;;;;7.78;2.25;;;;;;;18.27;100.00;100704.88;10571879;27;20047;-77
2023/12/06 03:19:17;;;;;;;7.72;2.00;;;;;;;18.39;100.00;100702.91;10587973;27;20039;-77
2023/12/06 03:24:39;;;;;;;11.48;2.58;;;;;;;18.35;100.00;100707.44;10570242;27;20064;-77
2023/12/06 03:30:06;;;;;;;6.95;3.10;;;;;;;18.24;100.00;100714.75;10562746;28;20514;-77
2023/12/06 03:35:28;;;;;;;9.55;2.58;;;;;;;18.23;100.00;100727.22;10569955;28;20047;-77
2023/12/06 03:40:50;;;;;;;17.27;3.00;;;;;;;18.20;100.00;100739.75;10545150;28;20124;-77
2023/12/06 03:46:14;;;;;;;9.10;2.53;;;;;;;18.16;100.00;100732.69;10582320;28;20051;-77
2023/12/06 03:51:37;;;;;;;25.13;10.40;;;;;;;18.23;100.00;100719.22;10580583;28;20138;-77
2023/12/06 03:56:59;;;;;;;11.02;2.88;;;;;;;18.26;100.00;100711.13;10563848;27;20152;-77
2023/12/06 04:02:23;;;;;;;9.95;2.90;;;;;;;18.19;100.00;100708.56;10595916;28;20551;-77
2023/12/06 04:07:46;;;;;;;10.98;1.73;;;;;;;18.14;100.00;100708.66;10560696;28;20203;-77
2023/12/06 04:13:08;;;;;;;9.60;3.42;;;;;;;18.35;100.00;100691.41;10592752;28;20614;-77
2023/12/06 04:18:32;;;;;;;5.93;2.67;;;;;;;18.46;100.00;100699.22;10562109;27;20095;-77
2023/12/06 04:23:54;;;;;;;6.72;1.45;;;;;;;18.41;100.00;100709.13;10584039;27;20079;-77
2023/12/06 04:29:17;;;;;;;5.28;1.48;;;;;;;18.23;100.00;100707.63;10579895;27;20134;-77
2023/12/06 04:34:49;;;;;;;10.68;2.72;;;;;;;18.09;100.00;100691.84;10589438;27;20088;-77
2023/12/06 04:40:12;;;;;;;4.07;1.50;;;;;;;18.02;100.00;100686.59;10547579;27;20043;-77
2023/12/06 04:45:35;;;;;;;6.40;1.70;;;;;;;18.05;100.00;100691.91;10584169;27;20353;-77
2023/12/06 04:50:59;;;;;;;5.57;1.60;;;;;;;18.05;100.00;100692.78;10569652;27;20046;-77
2023/12/06 04:56:21;;;;;;;6.60;1.73;;;;;;;18.04;100.00;100695.50;10570846;27;20043;-77
2023/12/06 05:01:44;;;;;;;15.65;9.10;;;;;;;18.03;100.00;100705.28;10602264;27;20047;-77
2023/12/06 05:07:08;;;;;;;11.18;5.05;;;;;;;17.81;100.00;100699.38;10606167;27;20396;-77
2023/12/06 05:12:30;;;;;;;12.35;4.60;;;;;;;17.82;100.00;100706.50;10591399;27;20155;-76
2023/12/06 05:17:53;;;;;;;11.48;3.22;;;;;;;17.77;100.00;100702.13;10597672;27;20064;-77
2023/12/06 05:23:17;;;;;;;10.30;3.78;;;;;;;17.73;100.00;100703.06;10555206;27;20572;-77
2023/12/06 05:28:39;;;;;;;6.90;3.00;;;;;;;17.83;100.00;100694.03;10571135;27;20463;-77
2023/12/06 05:34:01;;;;;;;10.48;3.90;;;;;;;17.92;100.00;100685.84;10573334;27;20039;-76
2023/12/06 05:39:26;;;;;;;20.60;10.43;;;;;;;18.03;100.00;100677.69;10567831;27;20127;-77
2023/12/06 05:44:48;;;;;;;10.07;2.30;;;;;;;18.19;100.00;100663.16;10602985;27;20051;-77
2023/12/06 05:50:12;;;;;;;8.70;2.17;;;;;;;18.53;100.00;100655.41;10584108;27;20047;-78
2023/12/06 05:55:36;;;;;;;8.25;3.13;;;;;;;18.76;100.00;100645.22;10569953;27;20058;-77
2023/12/06 06:00:59;;;;;;;32.50;23.75;;;;;;;18.90;100.00;100637.78;10574096;27;20051;-77
2023/12/06 06:06:21;;;;;;;15.30;10.00;;;;;;;18.77;100.00;100644.31;10554717;27;20043;-76
2023/12/06 06:11:48;;;;;;;24.60;18.65;;;;;;;18.58;100.00;100637.53;10570401;27;20047;-77
2023/12/06 06:17:10;;;;;;;40.47;30.02;;;;;;;18.47;100.00;100640.38;10563796;27;20043;-77
2023/12/06 06:22:33;;;;;;;31.25;23.48;;;;;;;18.62;100.00;100639.25;10581083;27;20071;-76
2023/12/06 06:27:57;;;;;;;8.85;6.38;;;;;;;19.01;100.00;100645.59;10599064;27;20092;-77
2023/12/06 06:33:19;;;;;;;3.58;2.10;;;;;;;21.99;77.80;100651.06;10583057;27;20392;-77
2023/12/06 06:38:42;;;;;;;6.95;5.65;;;;;;;24.13;56.17;100657.34;10562731;28;20044;-77
2023/12/06 06:44:06;;;;;;;5.45;3.08;;;;;;;24.76;49.00;100660.94;10559555;27;20401;-77
2023/12/06 06:49:29;;;;;;;9.23;8.35;;;;;;;25.83;46.51;100672.22;10567252;27;20039;-77
2023/12/06 06:54:51;;;;;;;26.08;23.40;;;;;;;26.46;45.79;100676.25;10583733;27;20047;-78
2023/12/06 07:00:16;;;;;;;3.67;1.98;;;;;;;25.96;44.57;100673.38;10576300;27;20051;-77
2023/12/06 07:05:39;;;;;;;4.65;4.25;;;;;;;25.10;46.20;100670.25;10594935;27;20043;-78
2023/12/06 07:11:03;;;;;;;3.40;1.58;;;;;;;25.15;45.82;100693.41;10600104;27;20027;-78
2023/12/06 07:16:28;;;;;;;2.20;1.05;;;;;;;25.51;44.07;100695.38;10599857;27;20046;-78
2023/12/06 07:21:50;;;;;;;2.25;1.25;;;;;;;25.48;44.13;100709.00;10611726;27;20540;-78
2023/12/06 07:27:13;;;;;;;3.03;1.45;;;;;;;26.11;43.13;100711.38;10578747;27;20040;-78
2023/12/06 07:32:37;;;;;;;5.57;1.08;;;;;;;26.05;42.44;100700.88;10598560;28;20051;-78
2023/12/06 07:37:59;;;;;;;5.47;1.33;;;;;;;26.31;42.31;100715.84;10595800;28;20455;-79
2023/12/06 07:43:22;;;;;;;7.78;1.25;;;;;;;26.41;42.07;100725.25;10600057;28;20062;-79
2023/12/06 07:48:47;;;;;;;2.28;0.80;;;;;;;25.94;42.64;100730.25;10600161;28;20056;-78
2023/12/06 07:54:09;;;;;;;1.90;0.90;;;;;;;25.69;43.00;100743.19;10592243;27;21290;-78
2023/12/06 07:59:32;;;;;;;6.30;2.17;;;;;;;25.70;42.81;100742.25;10592458;27;20054;-79
2023/12/06 08:04:56;;;;;;;4.15;0.98;;;;;;;26.04;42.80;100737.00;10585067;27;20050;-78
2023/12/06 08:10:22;;;;;;;2.25;0.80;;;;;;;25.95;43.39;100731.13;10601246;27;20100;-79
2023/12/06 08:15:45;;;;;;;3.23;0.70;;;;;;;25.89;44.52;100740.44;10632792;27;20430;-78
2023/12/06 08:21:09;;;;;;;2.70;0.90;;;;;;;26.42;43.04;100731.53;10603759;27;20077;-77
2023/12/06 08:26:32;;;;;;;2.75;0.80;;;;;;;26.31;42.44;100731.19;10587560;27;20047;-79
2023/12/06 08:31:54;;;;;;;2.17;0.80;;;;;;;26.73;42.32;100726.28;10591613;27;20070;-78
2023/12/06 08:37:18;;;;;;;4.13;0.77;;;;;;;26.93;41.48;100737.00;10569894;28;20259;-78
2023/12/06 08:42:41;;;;;;;1.10;0.70;;;;;;;27.63;40.35;100733.25;10604187;27;20092;-79
2023/12/06 08:48:04;;;;;;;24.58;7.03;;;;;;;27.99;39.62;100732.13;10570402;27;20095;-79
2023/12/06 08:53:28;;;;;;;7.75;2.58;;;;;;;28.01;38.62;100733.81;10572837;27;20043;-79
2023/12/06 08:58:50;;;;;;;42.47;26.08;;;;;;;28.30;38.99;100743.00;10607135;27;20453;-79
2023/12/06 09:04:13;;;;;;;42.72;16.55;;;;;;;27.93;38.86;100719.78;10599919;27;20039;-79
2023/12/06 09:09:37;;;;;;;23.63;11.75;;;;;;;27.76;39.32;100722.59;10590707;27;20054;-79
2023/12/06 09:14:59;;;;;;;17.15;8.23;;;;;;;27.13;40.74;100708.84;10605746;27;20120;-77
2023/12/06 09:20:22;;;;;;;26.05;12.15;;;;;;;26.56;41.81;100707.34;10603482;27;20103;-77
2023/12/06 09:25:46;;;;;;;6.78;3.22;;;;;;;27.36;41.59;100700.34;10590610;27;20047;-77
2023/12/06 09:31:08;;;;;;;10.18;5.25;;;;;;;27.40;41.44;100690.19;10578200;27;20047;-80
2023/12/06 09:36:31;;;;;;;7.75;3.67;;;;;;;27.95;40.96;100676.28;10604401;27;20074;-78
2023/12/06 09:41:55;;;;;;;10.40;5.15;;;;;;;27.82;41.15;100691.50;10581359;27;20119;-78
2023/12/06 09:47:17;;;;;;;7.45;3.92;;;;;;;28.71;39.94;100690.78;10562450;28;20101;-78
2023/12/06 09:52:40;;;;;;;13.13;6.03;;;;;;;28.53;40.39;100690.91;10561489;28;20063;-79
2023/12/06 09:58:04;;;;;;;13.48;9.00;;;;;;;27.71;40.96;100690.25;10572955;27;20046;-77
2023/12/06 10:03:27;;;;;;;9.35;8.10;;;;;;;27.69;40.93;100681.34;10606042;27;20153;-80
2023/12/06 10:08:55;;;;;;;11.52;8.40;;;;;;;28.86;39.39;100673.56;10567909;27;20050;-79
2023/12/06 10:14:19;;;;;;;;;;;;;;;30.22;36.94;100682.03;10592050;27;20054;-78
2023/12/06 10:19:41;;;;;;;10.77;4.55;;;;;;;30.42;36.75;100668.81;10574666;28;20415;-78
2023/12/06 10:25:06;;;;;;;7.40;2.95;;;;;;;30.40;36.39;100648.06;10584970;27;20066;-78
2023/12/06 10:30:30;;;;;;;10.45;5.75;;;;;;;28.44;40.02;100650.72;10588039;27;20147;-78
2023/12/06 10:35:52;;;;;;;15.95;7.63;;;;;;;26.10;44.81;100639.25;10598414;27;20062;-77
2023/12/06 10:41:16;;;;;;;12.25;9.23;;;;;;;24.92;49.73;100644.97;10588476;27;20516;-79
2023/12/06 10:46:43;;;;;;;8.45;3.72;;;;;;;25.03;51.48;100653.44;10569561;27;20079;-80
2023/12/06 10:52:06;;;;;;;15.35;8.25;;;;;;;26.11;49.43;100641.03;10602861;27;20057;-78
2023/12/06 10:57:30;;;;;;;16.05;7.22;;;;;;;25.88;50.86;100649.38;10588633;27;20044;-80
2023/12/06 11:02:53;;;;;;;6.50;2.28;;;;;;;25.96;50.73;100641.78;10590618;27;20050;-78
2023/12/06 11:08:38;;;;;;;6.75;3.40;;;;;;;26.54;48.72;100644.25;10582052;27;20734;-79
2023/12/06 11:14:14;;;;;;;3.80;1.95;;;;;;;24.94;53.68;100652.03;10592919;27;20162;-80
2023/12/06 11:19:38;;;;;;;7.82;4.60;;;;;;;24.18;61.26;100643.66;10586481;27;20046;-77
2023/12/06 11:25:03;;;;;;;8.88;1.85;;;;;;;23.63;66.73;100634.28;10566088;27;20044;-76
2023/12/06 11:30:25;;;;;;;4.28;1.10;;;;;;;23.36;69.22;100644.31;10589482;28;20372;-79
2023/12/06 11:35:53;;;;;;;5.35;1.55;;;;;;;22.93;74.08;100624.38;10579102;27;20054;-78
2023/12/06 11:41:17;;;;;;;12.10;10.68;;;;;;;22.62;75.54;100630.00;10597092;28;20070;-77
2023/12/06 11:46:39;;;;;;;5.95;3.40;;;;;;;22.62;75.85;100602.19;10594494;28;20047;-75
2023/12/06 11:52:05;;;;;;;3.55;2.42;;;;;;;22.59;71.25;100610.38;10588607;28;20047;-77
2023/12/06 11:57:27;;;;;;;9.18;4.85;;;;;;;23.01;67.66;100613.34;10589952;28;20043;-76
2023/12/06 12:02:50;;;;;;;5.15;1.90;;;;;;;23.15;63.49;100613.69;10599917;28;20131;-78
2023/12/06 12:08:15;;;;;;;2.42;1.08;;;;;;;23.27;57.89;100626.69;10593937;28;20043;-78
2023/12/06 12:13:39;;;;;;;1.23;0.90;;;;;;;23.14;55.24;100625.41;10594362;28;20059;-79
2023/12/06 12:19:03;;;;;;;5.82;2.65;;;;;;;23.06;54.31;100624.78;10600462;27;20506;-79
2023/12/06 12:24:27;;;;;;;3.90;1.70;;;;;;;23.45;52.68;100635.84;10585935;27;20066;-79
2023/12/06 12:29:56;;;;;;;5.43;1.73;;;;;;;23.83;50.35;100646.00;10599556;28;20046;-78
2023/12/06 12:35:19;;;;;;;4.60;2.35;;;;;;;23.67;50.31;100649.41;10578148;28;20058;-78
2023/12/06 12:40:43;;;;;;;4.53;1.92;;;;;;;23.45;52.02;100643.94;10577790;27;20074;-78
2023/12/06 12:46:06;;;;;;;3.72;1.45;;;;;;;23.20;54.91;100644.00;10600714;27;20560;-79
2023/12/06 12:51:33;;;;;;;4.57;1.38;;;;;;;22.87;58.55;100651.53;10604311;27;20398;-78
2023/12/06 12:56:57;;;;;;;5.30;1.70;;;;;;;22.83;61.53;100647.22;10604015;27;20051;-77
2023/12/06 13:02:19;;;;;;;1.40;0.80;;;;;;;23.10;61.31;100657.91;10586070;27;20134;-78
2023/12/06 13:07:42;;;;;;;2.22;1.00;;;;;;;23.07;62.84;100664.25;10592414;27;20050;-78
2023/12/06 13:13:05;;;;;;;4.40;1.30;;;;;;;22.94;66.01;100665.66;10553535;27;20040;-79
2023/12/06 13:18:29;;;;;;;6.95;1.85;;;;;;;22.85;69.51;100684.81;10589932;27;20138;-79
2023/12/06 13:23:51;;;;;;;4.82;2.30;;;;;;;22.97;70.92;100687.94;10593453;27;20054;-79
2023/12/06 13:29:15;;;;;;;5.93;1.98;;;;;;;23.07;71.21;100695.69;10569705;27;20055;-78
2023/12/06 13:34:38;;;;;;;7.57;2.55;;;;;;;22.93;72.46;100704.28;10574495;27;20130;-78
2023/12/06 13:40:00;;;;;;;3.75;1.55;;;;;;;22.65;74.52;100707.03;10566310;27;20063;-79
2023/12/06 13:45:26;;;;;;;6.70;1.70;;;;;;;22.33;77.43;100718.03;10563454;27;20046;-80
2023/12/06 13:50:48;;;;;;;4.55;1.10;;;;;;;22.13;80.01;100730.31;10562349;27;20099;-79
2023/12/06 13:56:11;;;;;;;5.97;1.40;;;;;;;22.17;78.65;100742.75;10590022;27;20477;-79
2023/12/06 14:01:35;;;;;;;5.72;1.50;;;;;;;22.06;78.83;100742.19;10586680;27;20051;-79
2023/12/06 14:06:57;;;;;;;5.13;1.40;;;;;;;21.92;79.64;100757.00;10587373;27;20071;-79
2023/12/06 14:12:19;;;;;;;4.00;1.23;;;;;;;21.62;82.56;100751.59;10552952;27;20071;-78
2023/12/06 14:17:43;;;;;;;6.82;2.45;;;;;;;21.41;85.08;100762.97;10562785;27;20075;-79
2023/12/06 14:23:06;;;;;;;7.80;3.25;;;;;;;21.24;87.33;100776.03;10561860;28;20082;-79
2023/12/06 14:28:28;;;;;;;6.72;2.10;;;;;;;21.08;89.37;100778.19;10547278;28;20092;-78
2023/12/06 14:33:52;;;;;;;11.27;2.80;;;;;;;20.95;91.66;100766.03;10562677;28;20096;-78
2023/12/06 14:39:15;;;;;;;7.35;2.90;;;;;;;20.79;92.86;100772.75;10547499;28;20549;-78
2023/12/06 14:44:37;;;;;;;11.23;2.80;;;;;;;20.64;94.48;100757.91;10569765;27;20600;-78
2023/12/06 14:50:02;;;;;;;13.48;3.20;;;;;;;20.41;97.03;100763.88;10557009;28;20445;-78
2023/12/06 14:55:25;;;;;;;11.32;5.63;;;;;;;20.16;99.13;100768.91;10558905;27;20040;-79
2023/12/06 15:00:49;;;;;;;9.60;2.35;;;;;;;19.99;100.00;100784.50;10569950;27;20043;-79
2023/12/06 15:06:13;;;;;;;8.18;2.80;;;;;;;19.79;100.00;100800.13;10577889;27;20046;-79
2023/12/06 15:11:35;;;;;;;9.43;2.85;;;;;;;19.68;100.00;100805.72;10580735;27;20092;-80
2023/12/06 15:16:58;;;;;;;26.13;7.05;;;;;;;19.40;100.00;100808.06;10590400;27;20043;-79
2023/12/06 15:22:21;;;;;;;18.42;5.93;;;;;;;19.18;100.00;100809.38;10580009;27;20054;-79
2023/12/06 15:27:44;;;;;;;14.98;5.80;;;;;;;19.00;100.00;100829.31;10602887;27;20408;-80
2023/12/06 15:33:08;;;;;;;18.35;3.95;;;;;;;18.82;100.00;100829.66;10591126;28;20076;-79
2023/12/06 15:38:32;;;;;;;13.18;4.43;;;;;;;18.60;100.00;100836.25;10582876;28;20054;-79
2023/12/06 15:43:55;;;;;;;5.68;2.55;;;;;;;18.62;100.00;100835.34;10579038;28;20128;-80
2023/12/06 15:49:21;;;;;;;13.23;2.90;;;;;;;18.59;100.00;100831.81;10561173;28;20052;-79
2023/12/06 15:54:46;;;;;;;10.32;2.70;;;;;;;18.87;100.00;100830.44;10540872;28;20129;-79
2023/12/06 16:00:10;;;;;;;13.07;5.05;;;;;;;18.94;100.00;100834.78;10559528;28;20130;-78
2023/12/06 16:05:35;;;;;;;13.65;3.58;;;;;;;18.84;100.00;100845.69;10553224;28;20043;-80
2023/12/06 16:10:59;;;;;;;9.60;2.55;;;;;;;18.54;100.00;100845.22;10557636;28;20485;-80
2023/12/06 16:16:22;;;;;;;7.55;2.25;;;;;;;18.70;100.00;100862.84;10569230;28;20040;-79
2023/12/06 16:21:45;;;;;;;8.90;2.97;;;;;;;18.75;100.00;100877.94;10552834;28;20051;-78
2023/12/06 16:27:09;;;;;;;15.38;7.13;;;;;;;18.84;100.00;100888.50;10543946;28;20158;-77
2023/12/06 16:32:31;;;;;;;13.57;5.97;;;;;;;18.95;100.00;100895.44;10564512;28;20530;-77
2023/12/06 16:37:53;;;;;;;8.45;6.03;;;;;;;18.85;100.00;100896.47;10575100;28;20040;-78
2023/12/06 16:43:17;;;;;;;9.82;4.75;;;;;;;18.52;100.00;100897.84;10565277;28;20220;-80
2023/12/06 16:48:40;;;;;;;6.72;3.17;;;;;;;18.21;100.00;100908.09;10574512;28;20052;-80
2023/12/06 16:54:03;;;;;;;14.52;2.95;;;;;;;18.06;100.00;100910.06;10561820;28;20051;-80
2023/12/06 16:59:27;;;;;;;9.50;2.45;;;;;;;18.09;100.00;100904.69;10551472;28;20501;-80
2023/12/06 17:04:49;;;;;;;10.60;3.78;;;;;;;18.03;100.00;100928.81;10568417;28;20051;-79
2023/12/06 17:10:11;;;;;;;6.45;2.75;;;;;;;17.96;100.00;100936.03;10559263;28;20053;-79
2023/12/06 17:15:35;;;;;;;7.75;2.53;;;;;;;17.96;100.00;100935.13;10557408;28;20051;-79
2023/12/06 17:20:57;;;;;;;7.82;3.00;;;;;;;18.03;100.00;100948.41;10536695;28;20105;-78
2023/12/06 17:26:21;;;;;;;8.38;2.80;;;;;;;18.05;100.00;100959.09;10562984;28;20517;-82
2023/12/06 17:31:44;;;;;;;8.13;2.80;;;;;;;17.92;100.00;100979.69;10569524;28;20047;-78
2023/12/06 17:37:07;;;;;;;12.55;2.72;;;;;;;18.20;100.00;100977.59;10549603;28;20072;-78
2023/12/06 17:42:29;;;;;;;7.88;2.92;;;;;;;18.42;100.00;100970.19;10565404;27;20048;-80
2023/12/06 17:47:54;;;;;;;8.50;2.28;;;;;;;18.31;100.00;100941.78;10563095;28;20467;-81
2023/12/06 17:53:16;;;;;;;14.13;3.40;;;;;;;18.17;100.00;100954.47;10549642;28;20508;-80
2023/12/06 17:58:38;;;;;;;18.08;8.13;;;;;;;17.74;100.00;100963.84;10557134;28;20052;-79
2023/12/06 18:04:04;;;;;;;13.48;7.07;;;;;;;17.23;100.00;100966.09;10566294;28;20564;-77
2023/12/06 18:09:26;;;;;;;13.40;6.07;;;;;;;17.16;100.00;100980.38;10573258;28;20047;-78
2023/12/06 18:14:49;;;;;;;9.50;3.63;;;;;;;17.11;100.00;100975.09;10577966;28;20485;-78
2023/12/06 18:20:13;;;;;;;7.95;5.00;;;;;;;17.09;100.00;100979.53;10536608;28;20740;-79
2023/12/06 18:25:35;;;;;;;17.52;8.38;;;;;;;17.37;100.00;100971.31;10540766;28;20075;-79
2023/12/06 18:30:57;;;;;;;17.33;10.80;;;;;;;17.33;100.00;100974.88;10528946;28;20048;-78
2023/12/06 18:36:22;;;;;;;14.35;8.15;;;;;;;17.35;100.00;100998.00;10536459;28;20517;-79
2023/12/06 18:41:44;;;;;;;15.00;8.15;;;;;;;17.41;100.00;101003.28;10552209;28;20047;-77
2023/12/06 18:47:06;;;;;;;8.02;3.30;;;;;;;17.51;100.00;101005.00;10588313;27;20047;-80
2023/12/06 18:52:30;;;;;;;9.57;3.00;;;;;;;17.26;100.00;100992.78;10603534;27;20084;-78
2023/12/06 18:57:53;;;;;;;10.20;4.00;;;;;;;17.15;100.00;100991.94;10582408;27;20054;-77
2023/12/06 19:03:16;;;;;;;13.82;5.15;;;;;;;17.33;100.00;100998.91;10601301;27;20130;-78
2023/12/06 19:08:40;;;;;;;8.85;3.17;;;;;;;17.21;100.00;101004.34;10592306;27;20078;-78
2023/12/06 19:14:04;;;;;;;13.98;5.55;;;;;;;16.76;100.00;101010.88;10596628;27;20054;-77
2023/12/06 19:19:26;;;;;;;20.75;12.38;;;;;;;16.64;100.00;101007.41;10589184;27;20047;-78
2023/12/06 19:24:51;;;;;;;14.05;5.38;;;;;;;16.36;100.00;101013.69;10583669;27;20047;-76
2023/12/06 19:30:14;;;;;;;7.72;3.25;;;;;;;16.18;100.00;101013.78;10580069;27;20043;-78
2023/12/06 19:35:36;;;;;;;9.05;3.30;;;;;;;16.11;100.00;101012.03;10589773;28;20158;-78
2023/12/06 19:41:05;;;;;;;9.98;3.53;;;;;;;15.90;100.00;101015.63;10603181;28;20050;-78
2023/12/06 19:46:27;;;;;;;20.98;9.73;;;;;;;16.00;100.00;101009.41;10560069;27;20054;-77
2023/12/06 19:51:50;;;;;;;17.15;8.98;;;;;;;16.03;100.00;101011.16;10596954;27;20425;-77
2023/12/06 19:57:13;;;;;;;11.68;3.60;;;;;;;15.98;100.00;101004.97;10604786;27;20130;-75
2023/12/06 20:02:36;;;;;;;9.23;3.60;;;;;;;15.90;100.00;101005.84;10591659;27;20065;-76
2023/12/06 20:07:58;;;;;;;30.77;15.65;;;;;;;15.82;100.00;101001.44;10605407;27;20054;-76
2023/12/06 20:13:22;;;;;;;25.60;11.00;;;;;;;15.87;100.00;101005.00;10605266;27;20075;-75
2023/12/06 20:18:44;;;;;;;10.68;4.85;;;;;;;15.87;100.00;101010.31;10573902;27;20051;-76
2023/12/06 20:24:08;;;;;;;11.43;5.38;;;;;;;16.07;100.00;100997.84;10600146;27;20047;-76
2023/12/06 20:29:31;;;;;;;7.97;4.55;;;;;;;15.99;100.00;101012.06;10583176;27;20047;-75
2023/12/06 20:34:55;;;;;;;9.68;4.55;;;;;;;15.87;100.00;101011.22;10592503;27;20055;-76
2023/12/06 20:40:17;;;;;;;6.75;4.20;;;;;;;15.79;100.00;101022.75;10608395;27;20100;-76
2023/12/06 20:45:41;;;;;;;6.57;3.90;;;;;;;15.71;100.00;101037.84;10575450;28;20067;-75
2023/12/06 20:51:04;;;;;;;20.83;15.40;;;;;;;16.07;100.00;101050.22;10568116;28;20409;-76
2023/12/06 20:56:26;;;;;;;17.13;8.95;;;;;;;16.23;100.00;101058.16;10575123;28;20802;-76
2023/12/06 21:01:51;;;;;;;16.90;9.65;;;;;;;16.06;100.00;101065.31;10579472;27;20055;-76
2023/12/06 21:07:13;;;;;;;48.30;27.27;;;;;;;16.10;100.00;101066.19;10602691;28;20058;-75
2023/12/06 21:12:36;;;;;;;14.15;8.05;;;;;;;16.09;100.00;101065.28;10602831;28;20116;-76
2023/12/06 21:18:00;;;;;;;16.45;9.57;;;;;;;16.11;100.00;101065.28;10588506;28;20043;-75
2023/12/06 21:23:23;;;;;;;10.25;4.90;;;;;;;16.10;100.00;101059.06;10603418;27;20039;-77
2023/12/06 21:28:45;;;;;;;13.25;7.13;;;;;;;16.13;100.00;101074.16;10602134;28;20541;-76
2023/12/06 21:34:09;;;;;;;9.55;3.67;;;;;;;16.12;100.00;101067.97;10602036;28;20043;-76
2023/12/06 21:39:31;;;;;;;9.48;4.22;;;;;;;16.09;100.00;101067.94;10585304;28;20128;-75
2023/12/06 21:44:54;;;;;;;21.55;12.50;;;;;;;16.09;100.00;101057.28;10522172;27;1856907;-76
2023/12/06 21:50:18;;;;;;;9.18;4.40;;;;;;;16.16;100.00;101061.72;10584225;27;20039;-75
2023/12/06 21:55:40;;;;;;;8.23;4.03;;;;;;;16.27;100.00;101041.28;10585371;27;20047;-75
2023/12/06 22:01:03;;;;;;;21.48;12.52;;;;;;;16.23;100.00;101049.28;10593065;27;20524;-75
2023/12/06 22:06:27;;;;;;;7.47;4.72;;;;;;;16.16;100.00;101047.50;10600770;27;20494;-76
2023/12/06 22:11:49;;;;;;;10.55;3.42;;;;;;;16.06;100.00;101057.31;10602174;27;20496;-76
2023/12/06 22:17:12;;;;;;;8.55;3.63;;;;;;;15.94;100.00;101071.56;10602192;27;20545;-76
2023/12/06 22:22:36;;;;;;;8.10;4.25;;;;;;;15.94;100.00;101078.66;10569511;27;20128;-76
2023/12/06 22:27:58;;;;;;;6.53;2.67;;;;;;;16.18;100.00;101059.06;10585246;27;20071;-76
2023/12/06 22:33:21;;;;;;;9.55;2.85;;;;;;;16.22;100.00;101050.16;10602619;27;20543;-76
2023/12/06 22:38:46;;;;;;;7.75;2.95;;;;;;;16.13;100.00;101053.75;10580952;27;20053;-76
2023/12/06 22:44:08;;;;;;;8.50;2.50;;;;;;;15.92;100.00;101065.34;10587657;27;20051;-76
2023/12/06 22:49:31;;;;;;;5.68;3.05;;;;;;;15.77;100.00;101057.34;10566081;28;20205;-76
2023/12/06 22:54:55;;;;;;;5.63;3.30;;;;;;;15.73;100.00;101047.59;10582597;27;20051;-76
2023/12/06 23:00:18;;;;;;;8.02;3.88;;;;;;;15.88;100.00;101057.34;10568259;27;20050;-77
2023/12/06 23:05:41;;;;;;;11.07;5.95;;;;;;;16.03;100.00;101051.09;10599784;27;20585;-76
2023/12/06 23:11:08;;;;;;;5.80;3.42;;;;;;;16.24;100.00;101029.75;10601192;27;20051;-76
2023/12/06 23:16:30;;;;;;;10.88;5.07;;;;;;;16.08;100.00;101041.34;10587492;27;20565;-76
2023/12/06 23:21:53;;;;;;;5.50;3.53;;;;;;;15.79;100.00;101049.38;10599520;27;20151;-76
2023/12/06 23:27:17;;;;;;;11.00;4.07;;;;;;;15.45;100.00;101067.97;10601599;27;20040;-76
2023/12/06 23:32:39;;;;;;;11.48;3.97;;;;;;;15.35;100.00;101067.97;10586940;27;20450;-76
2023/12/06 23:38:02;;;;;;;7.93;3.60;;;;;;;15.24;100.00;101080.34;10573782;28;20055;-76
2023/12/06 23:43:25;;;;;;;7.53;3.78;;;;;;;15.12;100.00;101078.56;10569000;27;20107;-76
2023/12/06 23:48:48;;;;;;;5.15;3.25;;;;;;;15.13;100.00;101083.91;10585939;28;20047;-77
2023/12/06 23:54:11;;;;;;;8.88;3.75;;;;;;;15.25;100.00;101088.34;10599799;28;20055;-76
2023/12/06 23:59:35;;;;;;;6.95;3.70;;;;;;;15.34;100.00;101087.47;10598898;28;20504;-76
